Flight Track Log - Related Links

Times and Time Zones

All times are in EDT time to prevent confusion due to time zone crossing. See the N7386R flight status page for this flight to view local times or setup timezone preferences in your user account.

Time Position Orientation Groundspeed Altitude Reporting Facility
EDT Latitude Longitude Course Direction KTS MPH feet Rate Location/Type
Wed 09:59:18 PM 43.8317 -91.2419 189° South 125 144 3,700  Level Minneapolis Center
Wed 10:00:19 PM 43.7950 -91.2478 187° South 125 144 4,600 878 Climbing Minneapolis Center
Wed 10:01:21 PM 43.7572 -91.2544 187° South 127 146 5,500 683 Climbing Minneapolis Center
Wed 10:02:00 PM 43.5990 -91.2988 185° South  Level Estimated
Wed 10:02:22 PM 43.7211 -91.2572 183° South 131 151 6,000  Level Minneapolis Center
Wed 10:03:00 PM 43.5521 -91.3030 184° South  Level FlightAware Approximate
Wed 10:03:24 PM 43.6736 -91.2619 184° South 160 184 6,100  Level Minneapolis Center
Wed 10:04:25 PM 43.6231 -91.2694 186° South 171 197 6,000  Descending Minneapolis Center
Wed 10:05:27 PM 43.5719 -91.2786 187° South 175 201 6,100 49 Climbing Minneapolis Center
Wed 10:06:28 PM 43.5250 -91.2842 185° South 175 201 6,100  Level Minneapolis Center
Wed 10:07:30 PM 43.4731 -91.2925 187° South 176 203 6,100  Level Minneapolis Center
Wed 10:08:31 PM 43.4217 -91.3000 186° South 177 204 6,100  Level Minneapolis Center
Wed 10:09:33 PM 43.3714 -91.3086 187° South 176 203 6,100  Level Minneapolis Center
Wed 10:10:34 PM 43.3239 -91.3142 185° South 176 203 6,100  Level Minneapolis Center
Wed 10:11:36 PM 43.2731 -91.3225 187° South 176 203 6,100  Level Minneapolis Center
Wed 10:12:38 PM 43.2258 -91.3300 187° South 176 203 6,100  Level Minneapolis Center
Wed 10:13:39 PM 43.1769 -91.3367 186° South 176 203 6,100  Level Minneapolis Center
Wed 10:14:41 PM 43.1281 -91.3450 187° South 176 203 6,100  Level Minneapolis Center
Wed 10:15:42 PM 43.0794 -91.3517 186° South 177 204 6,100 244 Level Minneapolis Center
Wed 10:16:44 PM 43.0214 -91.3611 187° South 176 203 6,600 774 Climbing Minneapolis Center
Wed 10:17:46 PM 42.9783 -91.3672 186° South 169 194 7,700 919 Climbing Minneapolis Center
Wed 10:18:48 PM 42.9400 -91.3733 187° South 155 178 8,500 800 Climbing Minneapolis Center
Wed 10:19:31 PM 42.9172 -91.3772 187° South 147 169 9,100 743 Climbing Chicago Center
Wed 10:20:33 PM 42.8692 -91.3853 187° South 143 165 9,800 780 Climbing Chicago Center
Wed 10:21:34 PM 42.8278 -91.3911 186° South 146 168 10,700 683 Climbing Chicago Center
Wed 10:22:36 PM 42.7897 -91.3975 187° South 144 166 11,200 488 Climbing Chicago Center
Wed 10:23:37 PM 42.7481 -91.4031 186° South 145 167 11,700 393 Climbing Chicago Center
Wed 10:24:38 PM 42.7058 -91.4097 187° South 148 170 12,000 146 Climbing Chicago Center
Wed 10:25:40 PM 42.6592 -91.4164 186° South 158 182 12,000 293 Level Chicago Center
Wed 10:26:41 PM 42.6158 -91.4219 185° South 157 181 12,600 393 Climbing Chicago Center
Wed 10:27:42 PM 42.5778 -91.4286 187° South 143 165 12,800 293 Climbing Chicago Center
Wed 10:28:44 PM 42.5378 -91.4336 185° South 143 165 13,200 341 Climbing Chicago Center
Wed 10:29:45 PM 42.4978 -91.4389 186° South 144 166 13,500 344 Climbing Chicago Center
Wed 10:30:46 PM 42.4506 -91.4456 186° South 144 166 13,900 195 Climbing Chicago Center
Wed 10:31:48 PM 42.4081 -91.4531 187° South 150 173 13,900 49 Level Chicago Center
Wed 10:32:49 PM 42.3628 -91.4600 186° South 160 184 14,000 49 Climbing Chicago Center
Wed 10:33:50 PM 42.3172 -91.4672 187° South 162 186 14,000 -49 Level Chicago Center
Wed 10:34:51 PM 42.2711 -91.4733 186° South 166 191 13,900 -49 Descending Chicago Center
Wed 10:35:53 PM 42.2253 -91.4794 186° South 168 193 13,900  Level Chicago Center
Wed 10:36:54 PM 42.1789 -91.4872 187° South 167 192 13,900 49 Level Chicago Center
Wed 10:37:55 PM 42.1333 -91.4906 183° South 167 192 14,000 49 Climbing Chicago Center
Wed 10:38:56 PM 42.0764 -91.5022 189° South 168 193 14,000  Level Chicago Center
Wed 10:39:58 PM 42.0294 -91.5089 186° South 169 194 14,000  Level Chicago Center
Wed 10:40:59 PM 41.9825 -91.5144 185° South 170 196 14,000 -49 Level Chicago Center
Wed 10:42:00 PM 41.9361 -91.5225 187° South 170 196 13,900  Descending Chicago Center
Wed 10:43:01 PM 41.8906 -91.5283 185° South 169 194 14,000  Climbing Chicago Center
Wed 10:44:02 PM 41.8456 -91.5356 187° South 168 193 13,900  Descending Chicago Center
Wed 10:45:03 PM 41.8008 -91.5408 185° South 166 191 14,000 49 Climbing Chicago Center
Wed 10:46:04 PM 41.7544 -91.5486 187° South 167 192 14,000 -49 Level Chicago Center
Wed 10:47:05 PM 41.7086 -91.5536 185° South 167 192 13,900  Descending Chicago Center
Wed 10:48:06 PM 41.6542 -91.5614 186° South 166 191 14,000 49 Climbing Chicago Center
Wed 10:49:08 PM 41.6075 -91.5686 187° South 169 194 14,000  Level Chicago Center
Wed 10:50:09 PM 41.5608 -91.5753 186° South 169 194 14,000  Level Chicago Center
Wed 10:51:10 PM 41.5136 -91.5825 187° South 171 197 14,000 49 Level Chicago Center
Wed 10:52:11 PM 41.4667 -91.5897 187° South 171 197 14,100 49 Climbing Chicago Center
Wed 10:53:12 PM 41.4206 -91.5964 186° South 170 196 14,100  Level Chicago Center
Wed 10:54:13 PM 41.3742 -91.6056 188° South 170 196 14,100  Level Chicago Center
Wed 10:55:14 PM 41.3286 -91.6097 184° South 169 194 14,100  Level Chicago Center
Wed 10:56:15 PM 41.2847 -91.6164 187° South 165 190 14,100 -49 Level Chicago Center
Wed 10:57:16 PM 41.2317 -91.6233 186° South 160 184 14,000 -49 Descending Chicago Center
Wed 10:58:17 PM 41.1869 -91.6294 186° South 160 184 14,000  Level Chicago Center
Wed 10:59:18 PM 41.1419 -91.6347 185° South 160 184 14,000 49 Level Chicago Center
Wed 11:00:20 PM 41.0986 -91.6419 187° South 158 182 14,100  Climbing Chicago Center
Wed 11:01:21 PM 41.0550 -91.6469 185° South 158 182 14,000  Descending Chicago Center
Wed 11:02:22 PM 41.0114 -91.6533 186° South 158 182 14,100  Climbing Chicago Center
Wed 11:03:23 PM 40.9650 -91.6603 186° South 157 181 14,000 -49 Descending Chicago Center
Wed 11:04:24 PM 40.9217 -91.6664 186° South 157 181 14,000 49 Level Chicago Center
Wed 11:05:25 PM 40.8783 -91.6714 185° South 157 181 14,100  Climbing Chicago Center
Wed 11:06:26 PM 40.8350 -91.6778 186° South 157 181 14,000  Descending Chicago Center
Wed 11:07:27 PM 40.7914 -91.6844 187° South 157 181 14,100  Climbing Chicago Center
Wed 11:08:28 PM 40.7478 -91.6900 186° South 157 181 14,000 -49 Descending Chicago Center
Wed 11:09:29 PM 40.7039 -91.6961 186° South 158 182 14,000 49 Level Chicago Center
Wed 11:10:30 PM 40.6597 -91.7033 187° South 159 183 14,100  Climbing Chicago Center
Wed 11:11:32 PM 40.6078 -91.7097 185° South 159 183 14,000  Descending Chicago Center
Wed 11:12:33 PM 40.5639 -91.7147 185° South 158 182 14,100 49 Climbing Chicago Center
Wed 11:13:34 PM 40.5203 -91.7225 188° South 158 182 14,100  Level Chicago Center
Wed 11:14:35 PM 40.4764 -91.7281 185° South 159 183 14,100  Level Chicago Center
Wed 11:15:36 PM 40.4328 -91.7344 186° South 158 182 14,100  Level Chicago Center
Wed 11:16:37 PM 40.3892 -91.7411 187° South 158 182 14,100 46 Level Chicago Center
Wed 11:17:46 PM 40.3347 -91.7464 184° South 159 183 14,200 46 Climbing Kansas City Center
Wed 11:18:47 PM 40.2892 -91.7519 185° South 160 184 14,200  Level Kansas City Center
Wed 11:19:48 PM 40.2442 -91.7594 187° South 162 186 14,200  Level Kansas City Center
Wed 11:20:50 PM 40.1997 -91.7653 186° South 162 186 14,200  Level Kansas City Center
Wed 11:21:49 PM 40.1547 -91.7717 186° South 162 186 14,200  Level Kansas City Center
Wed 11:22:52 PM 40.1103 -91.7783 187° South 162 186 14,200  Level Kansas City Center
Wed 11:23:52 PM 40.0658 -91.7842 186° South 162 186 14,200  Level Kansas City Center
Wed 11:24:52 PM 40.0208 -91.7906 186° South 162 186 14,200 -197 Level Kansas City Center
Wed 11:25:54 PM 39.9656 -91.7983 186° South 162 186 13,800 -484 Descending Kansas City Center
Wed 11:26:56 PM 39.9161 -91.8047 186° South 172 198 13,200 -537 Descending Kansas City Center
Wed 11:27:57 PM 39.8644 -91.8128 187° South 181 208 12,700 -488 Descending Kansas City Center
Wed 11:28:59 PM 39.8119 -91.8200 186° South 185 213 12,200 -492 Descending Kansas City Center
Wed 11:29:59 PM 39.7592 -91.8269 186° South 187 215 11,700 -393 Descending Kansas City Center
Wed 11:31:01 PM 39.7058 -91.8347 186° South 190 219 11,400 -341 Descending Kansas City Center
Wed 11:32:02 PM 39.6525 -91.8419 186° South 190 219 11,000 -341 Descending Kansas City Center
Wed 11:33:04 PM 39.6003 -91.8481 185° South 190 219 10,700 -390 Descending Kansas City Center
Wed 11:34:05 PM 39.5367 -91.8561 186° South 191 220 10,200 -425 Descending Kansas City Center
Wed 11:34:57 PM 39.4950 -91.8628 187° South 187 215 9,900 -344 Descending Kansas City Center
Wed 11:36:07 PM 39.4342 -91.8708 186° South 189 217 9,500 -406 Descending Kansas City Center
Wed 11:37:10 PM 39.3828 -91.8769 185° South 188 216 9,000 -435 Descending Kansas City Center
Wed 11:38:11 PM 39.3317 -91.8836 186° South 188 216 8,600 -393 Descending Kansas City Center
Wed 11:38:57 PM 39.2892 -91.8914 188° South 183 211 8,300 -295 Descending Kansas City Center
Wed 11:39:12 PM 39.2808 -91.8925 186° South 187 215 8,300 -395 Level Kansas City Center
Wed 11:40:13 PM 39.2269 -91.8975 184° South 187 215 7,800 -393 Descending Kansas City Center
Wed 11:41:14 PM 39.1764 -91.9039 186° South 186 214 7,500 -347 Descending Kansas City Center
Wed 11:42:14 PM 39.1242 -91.9119 187° South 186 214 7,100 -412 Descending Kansas City Center
Wed 11:42:56 PM 39.0814 -91.9175 186° South 181 208 6,800 -381 Descending Kansas City Center
Wed 11:43:17 PM 39.0639 -91.9203 187° South 186 214 6,700 -366 Descending Kansas City Center
Wed 11:44:18 PM 39.0131 -91.9267 186° South 183 211 6,300 -344 Descending Kansas City Center
Wed 11:45:19 PM 38.9611 -91.9328 185° South 184 212 6,000 -98 Descending Kansas City Center
Wed 11:46:20 PM 38.9119 -91.9392 186° South 181 208 6,100 61 Climbing Kansas City Center
Wed 11:46:57 PM 38.8839 -91.9428 186° South 173 199 6,100  Level Kansas City Center
Wed 11:47:23 PM 38.8642 -91.9453 186° South 179 206 6,100  Level Kansas City Center
Wed 11:48:23 PM 38.8161 -91.9522 186° South 176 203 6,100  Level Kansas City Center
Wed 11:49:24 PM 38.7678 -91.9586 186° South 176 203 6,100  Level Kansas City Center
Wed 11:50:25 PM 38.7203 -91.9644 185° South 175 201 6,100  Level Kansas City Center
Wed 11:50:57 PM 38.6906 -91.9681 185° South 172 198 6,100  Level Kansas City Center
Wed 11:51:27 PM 38.6731 -91.9717 189° South 173 199 6,100  Level Kansas City Center
Wed 11:52:28 PM 38.6267 -91.9764 185° South 172 198 6,100  Level Kansas City Center
Wed 11:53:29 PM 38.5794 -91.9828 186° South 172 198 6,100  Level Kansas City Center
Wed 11:54:30 PM 38.5325 -91.9894 186° South 172 198 6,100  Level Kansas City Center
Wed 11:54:57 PM 38.5056 -91.9925 185° South 170 196 6,100  Level Kansas City Center
Wed 11:55:31 PM 38.4853 -91.9958 187° South 172 198 6,100  Level Kansas City Center
Wed 11:56:32 PM 38.4375 -92.0019 186° South 171 197 6,100  Level Kansas City Center
Wed 11:57:34 PM 38.3897 -92.0078 185° South 172 198 6,100  Level Kansas City Center
Wed 11:58:35 PM 38.3328 -92.0161 187° South 171 197 6,100  Level Kansas City Center
Wed 11:59:35 PM 38.2864 -92.0219 186° South 170 196 6,100  Level Kansas City Center
Thu 12:00:35 AM 38.2389 -92.0286 186° South 170 196 6,100  Level Kansas City Center
Thu 12:01:38 AM 38.1906 -92.0344 185° South 170 196 6,100 50 Level Kansas City Center
Thu 12:02:36 AM 38.1419 -92.0400 185° South 171 197 6,200 50 Climbing Kansas City Center
Thu 12:03:37 AM 38.0931 -92.0464 186° South 172 198 6,200  Level Kansas City Center
Thu 12:04:41 AM 38.0439 -92.0533 186° South 172 198 6,200  Level Kansas City Center
Thu 12:05:39 AM 37.9939 -92.0589 185° South 173 199 6,200  Level Kansas City Center
Thu 12:06:43 AM 37.9447 -92.0658 186° South 176 203 6,200 -49 Level Kansas City Center
Thu 12:07:42 AM 37.8936 -92.0722 186° South 177 204 6,100 -50 Descending Kansas City Center
Thu 12:08:43 AM 37.8436 -92.0786 186° South 177 204 6,100  Level Kansas City Center
Thu 12:09:46 AM 37.7925 -92.0856 186° South 178 205 6,100  Level Kansas City Center
Thu 12:10:47 AM 37.7428 -92.0928 187° South 179 206 6,100  Level Kansas City Center
Thu 12:11:47 AM 37.6911 -92.0975 184° South 179 206 6,100 50 Level Kansas City Center
Thu 12:12:48 AM 37.6406 -92.1047 186° South 179 206 6,200 50 Climbing Kansas City Center
Thu 12:13:47 AM 37.5897 -92.1117 186° South 180 207 6,200  Level Kansas City Center
Thu 12:14:49 AM 37.5392 -92.1183 186° South 180 207 6,200  Level Kansas City Center
Thu 12:15:51 AM 37.4886 -92.1244 185° South 180 207 6,200  Level Kansas City Center
Thu 12:16:51 AM 37.4381 -92.1303 185° South 180 207 6,200  Level Kansas City Center
Thu 12:17:52 AM 37.3872 -92.1369 186° South 180 207 6,200  Level Kansas City Center
Thu 12:18:53 AM 37.3369 -92.1433 186° South 180 207 6,200  Level Kansas City Center
Thu 12:19:53 AM 37.2864 -92.1494 185° South 180 207 6,200  Level Kansas City Center
Thu 12:20:55 AM 37.2358 -92.1564 186° South 180 207 6,200  Level Kansas City Center
Thu 12:21:54 AM 37.1847 -92.1622 185° South 181 208 6,200  Level Kansas City Center
Thu 12:22:56 AM 37.1336 -92.1692 186° South 181 208 6,200  Level Kansas City Center
Thu 12:23:55 AM 37.0831 -92.1758 186° South 181 208 6,200  Level Kansas City Center
Thu 12:24:56 AM 37.0317 -92.1822 186° South 181 208 6,200  Level Kansas City Center
Thu 12:25:58 AM 36.9703 -92.1903 186° South 182 209 6,200  Level Kansas City Center
Thu 12:27:00 AM 36.9192 -92.1958 185° South 182 209 6,200  Level Kansas City Center
Thu 12:28:01 AM 36.8675 -92.2022 186° South 182 209 6,200  Level Kansas City Center
Thu 12:29:02 AM 36.8158 -92.2081 185° South 182 209 6,200  Level Kansas City Center
Thu 12:30:02 AM 36.7650 -92.2164 187° South 182 209 6,200  Level Kansas City Center
Thu 12:31:03 AM 36.7139 -92.2228 186° South 182 209 6,200  Level Kansas City Center
Thu 12:32:03 AM 36.6614 -92.2289 185° South 183 211 6,200  Level Kansas City Center
Thu 12:33:05 AM 36.6106 -92.2350 186° South 184 212 6,200  Level Kansas City Center
Thu 12:34:03 AM 36.5581 -92.2408 185° South 184 212 6,200  Level Kansas City Center
Thu 12:35:04 AM 36.5069 -92.2483 187° South 184 212 6,200  Level Kansas City Center
Thu 12:36:05 AM 36.4553 -92.2539 185° South 184 212 6,200  Level Kansas City Center
Thu 12:37:08 AM 36.4025 -92.2611 186° South 185 213 6,200  Level Kansas City Center
Thu 12:38:08 AM 36.3522 -92.2669 185° South 186 214 6,200  Level Kansas City Center
Thu 12:39:06 AM 36.3000 -92.2758 188° South 187 215 6,200  Level Kansas City Center
Thu 12:40:10 AM 36.2408 -92.2825 185° South 187 215 6,200  Level Kansas City Center
Thu 12:41:10 AM 36.1936 -92.2833 181° South 188 216 6,200  Level Kansas City Center
Thu 12:44:38 AM 36.0067 -92.3067 186° South 193 222 6,200  Level Memphis Center
Thu 12:45:38 AM 35.9556 -92.3153 188° South 185 213 6,200  Level Memphis Center
Thu 12:46:39 AM 35.9053 -92.3214 186° South 185 213 6,200  Level Memphis Center
Thu 12:47:39 AM 35.8533 -92.3272 185° South 185 213 6,200  Level Memphis Center
Thu 12:48:40 AM 35.8008 -92.3339 186° South 185 213 6,200  Level Memphis Center
Thu 12:49:41 AM 35.7486 -92.3406 186° South 186 214 6,200  Level Memphis Center
Thu 12:50:41 AM 35.6972 -92.3472 186° South 186 214 6,200  Level Memphis Center
Thu 12:51:42 AM 35.6469 -92.3531 185° South 186 214 6,200  Level Memphis Center
Thu 12:52:42 AM 35.5961 -92.3586 185° South 185 213 6,200  Level Memphis Center
Thu 12:53:43 AM 35.5436 -92.3647 185° South 185 213 6,200  Level Memphis Center
Thu 12:54:42 AM 35.4889 -92.3722 186° South 187 215 6,200  Level Memphis Center
Thu 12:55:42 AM 35.4369 -92.3781 185° South 185 213 6,200  Level Memphis Center
Thu 12:56:43 AM 35.3872 -92.3836 185° South 186 214 6,200  Level Memphis Center
Thu 12:57:45 AM 35.3369 -92.3906 186° South 185 213 6,200  Level Memphis Center
Thu 12:58:44 AM 35.2792 -92.3981 186° South 186 214 6,200  Level Memphis Center
Thu 12:59:45 AM 35.2292 -92.4036 185° South 187 215 6,200 -149 Level Memphis Center
Thu 01:00:45 AM 35.1731 -92.4097 185° South 192 221 5,900 -347 Descending Memphis Center
Thu 01:01:46 AM 35.1189 -92.4156 185° South 200 230 5,500 -393 Descending Memphis Center
Thu 01:02:47 AM 35.0628 -92.4239 187° South 199 229 5,100 -397 Descending Memphis Center
Thu 01:03:47 AM 35.0108 -92.4297 185° South 195 224 4,700 -446 Descending Memphis Center
Thu 01:04:48 AM 34.9525 -92.4358 185° South 196 226 4,200 -347 Descending Memphis Center
Thu 01:05:48 AM 34.8986 -92.4442 187° South 192 221 4,000 -446 Descending Memphis Center
Thu 01:06:49 AM 34.8467 -92.4497 185° South 189 217 3,300 -344 Descending Memphis Center
Thu 01:07:50 AM 34.7956 -92.4550 185° South 193 222 3,300  Level Memphis Center

Login

Don't have an account? Register now (free) for customized features, flight alerts, and more!